createdAt,value
2018-06-03T00:01:53.864Z,16.70
2018-06-03T00:07:17.366Z,16.66
2018-06-03T00:09:19.933Z,16.66
2018-06-03T00:12:42.625Z,16.79
2018-06-03T00:13:42.660Z,16.63
2018-06-03T00:14:42.694Z,16.73
2018-06-03T00:15:42.729Z,16.73
2018-06-03T00:16:42.764Z,16.76
2018-06-03T00:17:42.799Z,16.71
2018-06-03T00:18:42.852Z,16.70
2018-06-03T00:19:43.089Z,16.70
2018-06-03T00:20:42.904Z,16.68
2018-06-03T00:21:42.938Z,16.68
2018-06-03T00:22:42.974Z,16.63
2018-06-03T00:23:43.008Z,16.70
2018-06-03T00:24:43.051Z,16.70
2018-06-03T00:25:43.078Z,16.76
2018-06-03T00:26:43.112Z,16.75
2018-06-03T00:27:43.148Z,16.68
2018-06-03T00:28:43.185Z,16.66
2018-06-03T00:29:43.218Z,16.68
2018-06-03T00:30:43.252Z,16.68
2018-06-03T00:31:43.287Z,16.67
2018-06-03T00:32:43.323Z,16.61
2018-06-03T00:33:43.357Z,16.58
2018-06-03T00:34:43.391Z,16.53
2018-06-03T00:35:43.425Z,16.53
2018-06-03T00:36:43.461Z,16.56
2018-06-03T00:37:43.496Z,16.53
2018-06-03T00:38:43.535Z,16.52
2018-06-03T00:39:43.564Z,16.42
2018-06-03T00:40:43.599Z,16.52
2018-06-03T00:41:43.635Z,16.43
2018-06-03T00:42:43.671Z,16.45
2018-06-03T00:43:43.704Z,16.39
2018-06-03T00:44:43.740Z,16.41
2018-06-03T00:45:43.775Z,16.42
2018-06-03T00:46:43.809Z,16.33
2018-06-03T00:47:43.847Z,16.39
2018-06-03T00:48:43.877Z,16.38
2018-06-03T00:49:43.914Z,16.33
2018-06-03T00:50:43.947Z,16.28
2018-06-03T00:51:43.982Z,16.34
2018-06-03T00:52:44.016Z,16.30
2018-06-03T00:53:44.053Z,16.31
2018-06-03T00:54:44.087Z,16.28
2018-06-03T00:55:44.121Z,16.21
2018-06-03T00:56:44.156Z,16.11
2018-06-03T00:57:44.190Z,16.14
2018-06-03T00:58:44.225Z,16.15
2018-06-03T00:59:44.260Z,16.15
2018-06-03T01:00:44.294Z,16.17
2018-06-03T01:01:44.334Z,16.14
2018-06-03T01:02:44.364Z,16.12
2018-06-03T01:03:44.397Z,16.24
2018-06-03T01:04:44.434Z,16.24
2018-06-03T01:05:44.468Z,16.09
2018-06-03T01:06:44.503Z,16.04
2018-06-03T01:07:44.537Z,15.86
2018-06-03T01:08:44.570Z,15.97
2018-06-03T01:09:44.607Z,15.92
2018-06-03T01:10:44.641Z,15.93
2018-06-03T01:11:44.675Z,16.01
2018-06-03T01:12:44.709Z,15.92
2018-06-03T01:13:44.744Z,15.87
2018-06-03T01:14:44.778Z,15.89
2018-06-03T01:15:44.813Z,15.82
2018-06-03T01:16:44.848Z,15.83
2018-06-03T01:17:44.882Z,15.80
2018-06-03T01:18:44.916Z,15.87
2018-06-03T01:19:44.956Z,15.86
2018-06-03T01:20:44.986Z,15.90
2018-06-03T01:21:45.021Z,15.94
2018-06-03T01:22:45.056Z,15.92
2018-06-03T01:23:45.092Z,15.89
2018-06-03T01:24:45.124Z,15.89
2018-06-03T01:25:45.162Z,16.01
2018-06-03T01:26:45.193Z,15.90
2018-06-03T01:27:45.227Z,15.89
2018-06-03T01:28:45.264Z,15.86
2018-06-03T01:29:45.296Z,15.87
2018-06-03T01:30:45.336Z,15.96
2018-06-03T01:31:45.368Z,15.92
2018-06-03T01:32:45.399Z,15.86
2018-06-03T01:33:45.432Z,15.78
2018-06-03T01:34:45.469Z,15.82
2018-06-03T01:35:45.503Z,15.82
2018-06-03T01:36:45.535Z,15.83
2018-06-03T01:37:45.571Z,15.90
2018-06-03T01:38:45.606Z,15.93
2018-06-03T01:39:45.639Z,15.90
2018-06-03T01:40:45.674Z,15.94
2018-06-03T01:41:45.709Z,15.89
2018-06-03T01:42:45.743Z,15.93
2018-06-03T01:43:45.777Z,15.87
2018-06-03T01:44:45.812Z,15.93
2018-06-03T01:45:45.847Z,15.93
2018-06-03T01:46:45.882Z,15.93
2018-06-03T01:47:45.913Z,15.96
2018-06-03T01:48:45.949Z,15.92
2018-06-03T01:49:45.983Z,16.00
2018-06-03T01:50:46.018Z,15.97
2018-06-03T01:51:46.051Z,16.07
2018-06-03T01:52:46.087Z,15.96
2018-06-03T01:53:46.124Z,15.86
2018-06-03T01:54:46.158Z,15.83
2018-06-03T01:55:46.189Z,15.94
2018-06-03T01:56:46.224Z,15.89
2018-06-03T01:57:46.258Z,15.94
2018-06-03T01:58:46.293Z,15.94
2018-06-03T01:59:46.326Z,15.94
2018-06-03T02:00:46.361Z,15.84
2018-06-03T02:01:46.395Z,15.76
2018-06-03T02:02:46.430Z,15.74
2018-06-03T02:03:46.463Z,15.84
2018-06-03T02:04:46.498Z,15.74
2018-06-03T02:05:46.532Z,15.82
2018-06-03T02:06:46.567Z,15.69
2018-06-03T02:07:46.599Z,15.60
2018-06-03T02:08:46.651Z,15.60
2018-06-03T02:09:46.669Z,15.68
2018-06-03T02:10:46.703Z,15.64
2018-06-03T02:11:46.737Z,15.64
2018-06-03T02:12:46.772Z,15.57
2018-06-03T02:13:46.806Z,15.75
2018-06-03T02:14:46.841Z,15.69
2018-06-03T02:15:46.874Z,15.76
2018-06-03T02:16:46.909Z,15.78
2018-06-03T02:17:46.942Z,15.83
2018-06-03T02:18:46.977Z,15.84
2018-06-03T02:19:47.011Z,15.89
2018-06-03T02:20:47.044Z,15.89
2018-06-03T02:21:47.078Z,15.87
2018-06-03T02:22:47.114Z,15.86
2018-06-03T02:23:47.147Z,15.84
2018-06-03T02:24:47.182Z,15.75
2018-06-03T02:25:47.215Z,15.69
2018-06-03T02:26:47.251Z,15.68
2018-06-03T02:27:47.284Z,15.74
2018-06-03T02:28:47.318Z,15.68
2018-06-03T02:29:47.354Z,15.60
2018-06-03T02:30:47.387Z,15.65
2018-06-03T02:31:47.421Z,15.62
2018-06-03T02:32:47.660Z,15.62
2018-06-03T02:33:47.489Z,15.57
2018-06-03T02:34:47.523Z,15.60
2018-06-03T02:35:47.557Z,15.57
2018-06-03T02:36:47.592Z,15.47
2018-06-03T02:37:47.627Z,15.51
2018-06-03T02:38:47.661Z,15.39
2018-06-03T02:39:47.695Z,15.46
2018-06-03T02:40:47.728Z,15.34
2018-06-03T02:41:47.763Z,15.35
2018-06-03T02:42:47.798Z,15.39
2018-06-03T02:43:47.830Z,15.36
2018-06-03T02:44:47.867Z,15.43
2018-06-03T02:45:47.899Z,15.46
2018-06-03T02:46:47.935Z,15.44
2018-06-03T02:47:47.967Z,15.41
2018-06-03T02:48:48.001Z,15.39
2018-06-03T02:49:48.237Z,15.56
2018-06-03T02:50:48.071Z,15.50
2018-06-03T02:51:49.134Z,15.53
2018-06-03T02:52:48.872Z,15.51
2018-06-03T02:53:48.178Z,15.68
2018-06-03T02:54:48.214Z,15.65
2018-06-03T02:55:48.240Z,15.64
2018-06-03T02:56:48.275Z,15.62
2018-06-03T02:57:48.309Z,15.64
2018-06-03T02:58:48.342Z,15.57
2018-06-03T02:59:48.376Z,15.72
2018-06-03T03:00:48.410Z,15.60
2018-06-03T03:01:48.445Z,15.64
2018-06-03T03:02:48.480Z,15.62
2018-06-03T03:03:48.529Z,15.57
2018-06-03T03:04:48.547Z,15.62
2018-06-03T03:05:48.583Z,15.57
2018-06-03T03:06:48.616Z,15.56
2018-06-03T03:07:48.648Z,15.54
2018-06-03T03:08:48.682Z,15.53
2018-06-03T03:09:48.720Z,15.47
2018-06-03T03:10:48.754Z,15.46
2018-06-03T03:11:48.783Z,15.53
2018-06-03T03:12:48.821Z,15.49
2018-06-03T03:13:48.853Z,15.35
2018-06-03T03:14:48.887Z,15.43
2018-06-03T03:15:48.920Z,15.44
2018-06-03T03:16:48.956Z,15.46
2018-06-03T03:17:48.993Z,15.50
2018-06-03T03:18:49.025Z,15.59
2018-06-03T03:19:49.056Z,15.49
2018-06-03T03:20:49.091Z,15.59
2018-06-03T03:21:49.128Z,15.82
2018-06-03T03:22:49.159Z,15.69
2018-06-03T03:23:49.192Z,15.82
2018-06-03T03:24:49.227Z,15.82
2018-06-03T03:25:49.261Z,15.78
2018-06-03T03:26:49.296Z,15.86
2018-06-03T03:27:49.328Z,15.82
2018-06-03T03:28:49.364Z,15.82
2018-06-03T03:29:49.399Z,15.82
2018-06-03T03:30:49.432Z,15.78
2018-06-03T03:31:49.466Z,15.82
2018-06-03T03:32:49.500Z,15.76
2018-06-03T03:33:49.533Z,15.80
2018-06-03T03:34:49.569Z,15.82
2018-06-03T03:35:49.602Z,15.76
2018-06-03T03:36:49.635Z,15.86
2018-06-03T03:37:49.671Z,15.80
2018-06-03T03:38:49.706Z,15.75
2018-06-03T03:39:49.737Z,15.76
2018-06-03T03:40:49.772Z,15.78
2018-06-03T03:41:49.806Z,15.84
2018-06-03T03:42:49.841Z,15.84
2018-06-03T03:43:49.873Z,15.76
2018-06-03T03:44:49.907Z,15.68
2018-06-03T03:45:49.943Z,15.62
2018-06-03T03:46:49.977Z,15.56
2018-06-03T03:47:50.009Z,15.49
2018-06-03T03:48:50.047Z,15.60
2018-06-03T03:49:50.079Z,15.57
2018-06-03T03:50:50.116Z,15.54
2018-06-03T03:51:50.146Z,15.44
2018-06-03T03:52:50.180Z,15.50
2018-06-03T03:53:50.216Z,15.53
2018-06-03T03:54:50.249Z,15.57
2018-06-03T03:55:50.281Z,15.62
2018-06-03T03:56:50.317Z,15.59
2018-06-03T03:57:50.349Z,15.62
2018-06-03T03:58:50.385Z,15.59
2018-06-03T03:59:50.418Z,15.57
2018-06-03T04:00:50.453Z,15.56
2018-06-03T04:01:50.487Z,15.53
2018-06-03T04:02:50.522Z,15.56
2018-06-03T04:03:50.553Z,15.64
2018-06-03T04:04:50.589Z,15.65
2018-06-03T04:05:50.623Z,15.65
2018-06-03T04:06:50.657Z,15.59
2018-06-03T04:07:50.691Z,15.62
2018-06-03T04:08:50.724Z,15.64
2018-06-03T04:09:50.763Z,15.72
2018-06-03T04:10:50.793Z,15.71
2018-06-03T04:11:50.828Z,15.82
2018-06-03T04:12:50.861Z,15.78
2018-06-03T04:13:50.895Z,15.86
2018-06-03T04:14:50.931Z,15.93
2018-06-03T04:15:50.964Z,15.89
2018-06-03T04:16:50.998Z,15.86
2018-06-03T04:17:51.033Z,16.02
2018-06-03T04:18:51.067Z,16.04
2018-06-03T04:19:51.099Z,16.02
2018-06-03T04:20:51.134Z,16.07
2018-06-03T04:21:51.171Z,16.11
2018-06-03T04:22:51.204Z,16.23
2018-06-03T04:23:51.237Z,16.17
2018-06-03T04:24:51.270Z,16.15
2018-06-03T04:25:51.306Z,16.08
2018-06-03T04:26:51.341Z,16.05
2018-06-03T04:27:51.373Z,16.02
2018-06-03T04:28:51.408Z,15.97
2018-06-03T04:29:51.444Z,15.84
2018-06-03T04:30:51.478Z,15.72
2018-06-03T04:31:51.511Z,15.74
2018-06-03T04:32:51.545Z,15.89
2018-06-03T04:33:51.579Z,16.08
2018-06-03T04:34:51.615Z,16.04
2018-06-03T04:35:51.648Z,16.11
2018-06-03T04:36:51.681Z,16.14
2018-06-03T04:37:51.717Z,16.15
2018-06-03T04:38:51.751Z,16.15
2018-06-03T04:39:51.785Z,16.14
2018-06-03T04:40:51.819Z,16.12
2018-06-03T04:41:51.854Z,16.02
2018-06-03T04:42:51.888Z,16.11
2018-06-03T04:43:51.923Z,16.01
2018-06-03T04:44:51.957Z,16.05
2018-06-03T04:45:51.993Z,16.09
2018-06-03T04:46:52.028Z,16.09
2018-06-03T04:47:52.059Z,16.12
2018-06-03T04:48:52.094Z,16.28
2018-06-03T04:49:52.128Z,16.35
2018-06-03T04:50:52.167Z,16.43
2018-06-03T04:51:52.198Z,16.34
2018-06-03T04:52:52.231Z,16.56
2018-06-03T04:53:52.267Z,16.53
2018-06-03T04:54:52.303Z,16.66
2018-06-03T04:55:52.335Z,16.73
2018-06-03T04:56:52.379Z,16.76
2018-06-03T04:57:52.404Z,16.82
2018-06-03T04:58:52.441Z,16.91
2018-06-03T04:59:52.475Z,16.94
2018-06-03T05:00:52.508Z,16.96
2018-06-03T05:01:52.543Z,17.04
2018-06-03T05:02:52.581Z,17.11
2018-06-03T05:03:52.612Z,17.04
2018-06-03T05:04:52.649Z,17.06
2018-06-03T05:05:52.682Z,17.01
2018-06-03T05:06:52.717Z,17.12
2018-06-03T05:07:52.751Z,17.16
2018-06-03T05:08:52.787Z,17.15
2018-06-03T05:09:52.836Z,17.23
2018-06-03T05:10:52.859Z,17.23
2018-06-03T05:11:52.890Z,17.11
2018-06-03T05:12:52.932Z,17.04
2018-06-03T05:13:52.960Z,17.04
2018-06-03T05:14:52.995Z,17.04
2018-06-03T05:15:53.031Z,17.14
2018-06-03T05:16:53.066Z,17.11
2018-06-03T05:17:53.104Z,17.18
2018-06-03T05:18:53.134Z,17.40
2018-06-03T05:19:53.176Z,17.52
2018-06-03T05:20:53.206Z,17.58
2018-06-03T05:21:53.241Z,17.59
2018-06-03T05:22:53.277Z,17.75
2018-06-03T05:23:53.309Z,17.82
2018-06-03T05:24:53.345Z,17.92
2018-06-03T05:25:53.382Z,17.92
2018-06-03T05:26:53.425Z,17.99
2018-06-03T05:27:53.449Z,17.96
2018-06-03T05:28:53.486Z,18.03
2018-06-03T05:29:53.524Z,18.14
2018-06-03T05:30:53.558Z,18.14
2018-06-03T05:31:53.593Z,18.23
2018-06-03T05:32:53.627Z,18.29
2018-06-03T05:33:53.662Z,18.30
2018-06-03T05:34:53.698Z,18.32
2018-06-03T05:35:53.733Z,18.30
2018-06-03T05:36:53.770Z,18.32
2018-06-03T05:37:53.804Z,18.35
2018-06-03T05:38:53.841Z,18.45
2018-06-03T05:39:53.875Z,18.44
2018-06-03T05:40:53.912Z,18.51
2018-06-03T05:41:53.952Z,18.63
2018-06-03T05:42:53.984Z,18.70
2018-06-03T05:43:54.018Z,18.78
2018-06-03T05:44:54.073Z,18.80
2018-06-03T05:45:54.091Z,18.81
2018-06-03T05:46:54.128Z,18.78
2018-06-03T05:47:54.170Z,18.95
2018-06-03T05:48:54.202Z,18.98
2018-06-03T05:49:54.239Z,18.91
2018-06-03T05:50:54.272Z,18.90
2018-06-03T05:51:54.308Z,19.04
2018-06-03T05:52:54.343Z,19.06
2018-06-03T05:53:54.380Z,19.06
2018-06-03T05:54:54.416Z,19.11
2018-06-03T05:55:54.510Z,19.13
2018-06-03T05:56:54.488Z,19.22
2018-06-03T05:57:54.526Z,19.14
2018-06-03T05:58:54.563Z,19.22
2018-06-03T05:59:54.598Z,19.23
2018-06-03T06:00:54.636Z,19.37
2018-06-03T06:01:54.673Z,19.46
2018-06-03T06:02:54.711Z,19.55
2018-06-03T06:03:54.744Z,19.58
2018-06-03T06:04:54.782Z,19.71
2018-06-03T06:05:54.820Z,19.83
2018-06-03T06:06:54.856Z,19.83
2018-06-03T06:07:54.891Z,19.99
2018-06-03T06:08:54.959Z,20.10
2018-06-03T06:09:54.966Z,20.11
2018-06-03T06:10:55.006Z,20.26
2018-06-03T06:11:55.039Z,20.28
2018-06-03T06:12:55.079Z,20.35
2018-06-03T06:13:55.114Z,20.52
2018-06-03T06:14:55.156Z,20.55
2018-06-03T06:15:55.188Z,20.70
2018-06-03T06:16:55.224Z,20.82
2018-06-03T06:17:55.263Z,20.89
2018-06-03T06:18:55.301Z,20.92
2018-06-03T06:19:55.336Z,21.10
2018-06-03T06:20:55.375Z,21.16
2018-06-03T06:21:55.412Z,21.17
2018-06-03T06:22:55.449Z,21.29
2018-06-03T06:23:55.487Z,21.21
2018-06-03T06:24:55.525Z,21.29
2018-06-03T06:25:55.563Z,21.24
2018-06-03T06:26:55.601Z,21.27
2018-06-03T06:27:55.636Z,21.40
2018-06-03T06:28:55.675Z,21.40
2018-06-03T06:29:55.709Z,21.44
2018-06-03T06:30:55.746Z,21.46
2018-06-03T06:31:55.784Z,21.56
2018-06-03T06:32:55.824Z,21.59
2018-06-03T06:33:55.862Z,21.69
2018-06-03T06:34:55.900Z,21.71
2018-06-03T06:35:55.939Z,21.69
2018-06-03T06:36:55.980Z,21.71
2018-06-03T06:37:56.015Z,21.69
2018-06-03T06:38:56.054Z,21.56
2018-06-03T06:39:56.091Z,21.56
2018-06-03T06:40:56.130Z,21.53
2018-06-03T06:41:56.168Z,21.59
2018-06-03T06:42:56.206Z,21.56
2018-06-03T06:43:56.246Z,21.59
2018-06-03T06:44:56.283Z,21.52
2018-06-03T06:45:56.323Z,21.50
2018-06-03T06:46:56.361Z,21.52
2018-06-03T06:47:56.398Z,21.56
2018-06-03T06:48:56.442Z,21.59
2018-06-03T06:49:56.480Z,21.67
2018-06-03T06:50:56.516Z,21.72
2018-06-03T06:51:56.553Z,21.72
2018-06-03T06:52:56.593Z,21.80
2018-06-03T06:53:56.631Z,21.83
2018-06-03T06:54:56.671Z,21.92
2018-06-03T06:55:56.709Z,21.84
2018-06-03T06:56:56.748Z,21.99
2018-06-03T06:57:56.787Z,22.03
2018-06-03T06:58:56.826Z,22.03
2018-06-03T06:59:56.862Z,22.02
2018-06-03T07:00:56.901Z,22.00
2018-06-03T07:01:56.950Z,21.91
2018-06-03T07:02:56.981Z,21.94
2018-06-03T07:03:57.017Z,21.96
2018-06-03T07:07:57.191Z,22.10
2018-06-03T07:08:57.213Z,22.09
2018-06-03T07:09:57.252Z,22.18
2018-06-03T07:10:57.289Z,22.18
2018-06-03T07:11:57.532Z,22.25
2018-06-03T07:12:57.367Z,22.24
2018-06-03T07:13:57.406Z,22.43
2018-06-03T07:14:57.446Z,22.33
2018-06-03T07:15:57.482Z,22.37
2018-06-03T07:16:57.523Z,22.31
2018-06-03T07:17:57.561Z,22.28
2018-06-03T07:18:57.601Z,22.37
2018-06-03T07:19:57.638Z,22.43
2018-06-03T07:20:57.678Z,22.58
2018-06-03T07:21:57.717Z,22.64
2018-06-03T07:22:57.755Z,22.55
2018-06-03T07:23:57.794Z,22.58
2018-06-03T07:24:58.036Z,22.52
2018-06-03T07:26:57.930Z,22.60
2018-06-03T07:28:57.988Z,22.76
2018-06-03T07:29:58.028Z,22.85
2018-06-03T07:30:58.067Z,22.97
2018-06-03T07:31:58.108Z,22.95
2018-06-03T07:32:58.145Z,22.97
2018-06-03T07:33:58.200Z,22.97
2018-06-03T07:34:58.224Z,23.02
2018-06-03T07:35:58.262Z,23.12
2018-06-03T07:36:58.302Z,23.13
2018-06-03T07:37:58.340Z,23.17
2018-06-03T07:38:58.379Z,23.19
2018-06-03T07:39:58.418Z,23.15
2018-06-03T07:40:58.458Z,23.27
2018-06-03T07:41:58.742Z,23.31
2018-06-03T07:42:58.535Z,23.25
2018-06-03T07:43:58.584Z,23.12
2018-06-03T07:44:58.618Z,23.19
2018-06-03T07:45:58.653Z,23.22
2018-06-03T07:46:58.696Z,23.17
2018-06-03T07:47:58.732Z,23.10
2018-06-03T07:48:58.771Z,23.09
2018-06-03T07:49:58.811Z,23.20
2018-06-03T07:50:58.851Z,23.28
2018-06-03T07:51:58.889Z,23.28
2018-06-03T07:52:58.928Z,23.48
2018-06-03T07:53:58.969Z,23.65
2018-06-03T07:54:59.007Z,23.78
2018-06-03T07:55:59.044Z,23.68
2018-06-03T07:56:59.084Z,23.78
2018-06-03T07:57:59.123Z,23.87
2018-06-03T07:58:59.213Z,23.70
2018-06-03T07:59:59.200Z,23.50
2018-06-03T08:00:59.241Z,23.40
2018-06-03T08:01:59.278Z,23.73
2018-06-03T08:02:59.319Z,23.80
2018-06-03T08:03:59.358Z,23.80
2018-06-03T08:04:59.397Z,23.87
2018-06-03T08:05:59.480Z,23.83
2018-06-03T08:06:59.476Z,24.12
2018-06-03T08:07:59.516Z,24.31
2018-06-03T08:08:59.556Z,24.55
2018-06-03T08:09:59.596Z,24.73
2018-06-03T08:10:59.635Z,24.67
2018-06-03T08:11:59.673Z,24.78
2018-06-03T08:12:59.713Z,24.80
2018-06-03T08:13:59.754Z,24.98
2018-06-03T08:14:59.799Z,24.99
2018-06-03T08:15:59.834Z,24.91
2018-06-03T08:16:59.875Z,24.93
2018-06-03T08:17:59.914Z,24.99
2018-06-03T08:18:59.956Z,24.93
2018-06-03T08:19:59.993Z,25.03
2018-06-03T08:21:00.036Z,24.96
2018-06-03T08:22:00.079Z,25.32
2018-06-03T08:23:00.113Z,25.38
2018-06-03T08:24:00.154Z,25.09
2018-06-03T08:25:00.193Z,25.18
2018-06-03T08:26:00.235Z,25.33
2018-06-03T08:27:00.274Z,25.46
2018-06-03T08:28:00.313Z,25.46
2018-06-03T08:29:00.354Z,25.50
2018-06-03T08:30:00.396Z,25.76
2018-06-03T08:31:00.434Z,25.82
2018-06-03T08:32:00.479Z,25.80
2018-06-03T08:33:00.520Z,26.05
2018-06-03T08:34:00.555Z,26.13
2018-06-03T08:35:00.596Z,26.20
2018-06-03T08:36:00.637Z,26.33
2018-06-03T08:37:00.677Z,26.25
2018-06-03T08:38:00.722Z,26.33
2018-06-03T08:39:00.760Z,26.52
2018-06-03T08:40:00.801Z,26.54
2018-06-03T08:41:00.840Z,26.55
2018-06-03T08:42:00.883Z,26.66
2018-06-03T08:43:00.921Z,26.72
2018-06-03T08:44:00.964Z,26.58
2018-06-03T08:45:01.003Z,26.58
2018-06-03T08:46:01.046Z,26.69
2018-06-03T08:47:01.091Z,26.66
2018-06-03T08:48:01.126Z,26.62
2018-06-03T08:49:01.168Z,26.57
2018-06-03T08:50:01.209Z,26.69
2018-06-03T08:51:01.250Z,26.66
2018-06-03T08:52:01.314Z,26.50
2018-06-03T08:53:01.331Z,26.60
2018-06-03T08:54:01.377Z,26.82
2018-06-03T08:55:01.416Z,26.82
2018-06-03T08:56:01.455Z,26.91
2018-06-03T08:57:01.496Z,27.18
2018-06-03T08:58:01.593Z,27.41
2018-06-03T08:59:01.580Z,27.49
2018-06-03T09:00:01.618Z,27.40
2018-06-03T09:01:01.664Z,27.62
2018-06-03T09:02:01.721Z,27.78
2018-06-03T09:03:01.745Z,27.63
2018-06-03T09:04:01.790Z,27.59
2018-06-03T09:05:02.036Z,27.41
2018-06-03T09:06:01.868Z,27.18
2018-06-03T09:07:03.326Z,27.13
2018-06-03T09:08:01.952Z,27.19
2018-06-03T09:09:01.994Z,27.36
2018-06-03T09:10:02.036Z,27.46
2018-06-03T09:11:02.080Z,27.59
2018-06-03T09:12:02.119Z,27.88
2018-06-03T09:13:02.211Z,27.92
2018-06-03T09:14:02.202Z,28.17
2018-06-03T09:15:02.247Z,27.96
2018-06-03T09:16:02.286Z,28.02
2018-06-03T09:17:02.328Z,28.30
2018-06-03T09:18:02.370Z,28.25
2018-06-03T09:19:02.414Z,28.30
2018-06-03T09:20:02.454Z,28.07
2018-06-03T09:21:02.497Z,28.14
2018-06-03T09:22:02.539Z,28.11
2018-06-03T09:23:02.583Z,28.18
2018-06-03T09:24:02.624Z,28.25
2018-06-03T09:25:02.692Z,28.21
2018-06-03T09:26:02.709Z,28.09
2018-06-03T09:27:02.752Z,27.94
2018-06-03T09:28:02.796Z,28.14
2018-06-03T09:29:02.837Z,28.33
2018-06-03T09:30:02.880Z,28.30
2018-06-03T09:31:02.922Z,28.33
2018-06-03T09:32:02.964Z,28.39
2018-06-03T09:33:03.006Z,28.49
2018-06-03T09:34:03.048Z,28.55
2018-06-03T09:35:03.096Z,28.54
2018-06-03T09:36:03.133Z,28.22
2018-06-03T09:37:03.176Z,28.17
2018-06-03T09:38:03.220Z,28.46
2018-06-03T09:39:03.263Z,28.44
2018-06-03T09:40:03.304Z,28.61
2018-06-03T09:41:03.347Z,28.76
2018-06-03T09:42:03.430Z,28.98
2018-06-03T09:43:03.435Z,29.02
2018-06-03T09:44:03.477Z,29.08
2018-06-03T09:45:03.522Z,29.08
2018-06-03T09:46:03.564Z,29.16
2018-06-03T09:47:03.611Z,29.27
2018-06-03T09:48:03.707Z,29.61
2018-06-03T09:49:03.692Z,29.27
2018-06-03T09:50:03.735Z,29.12
2018-06-03T09:51:03.779Z,28.95
2018-06-03T09:52:03.821Z,28.54
2018-06-03T09:53:03.898Z,28.90
2018-06-03T09:54:03.908Z,28.92
2018-06-03T09:55:03.952Z,29.08
2018-06-03T09:56:03.995Z,29.31
2018-06-03T09:57:04.039Z,29.51
2018-06-03T09:58:04.082Z,29.33
2018-06-03T09:59:04.126Z,29.58
2018-06-03T10:00:04.169Z,29.71
2018-06-03T10:01:04.212Z,29.46
2018-06-03T10:02:04.257Z,29.55
2018-06-03T10:03:04.300Z,29.46
2018-06-03T10:04:04.342Z,29.51
2018-06-03T10:05:04.387Z,29.63
2018-06-03T10:06:04.432Z,29.90
2018-06-03T10:07:04.476Z,30.10
2018-06-03T10:08:04.519Z,30.37
2018-06-03T10:09:04.563Z,30.20
2018-06-03T10:10:04.609Z,30.38
2018-06-03T10:11:04.652Z,30.22
2018-06-03T10:12:04.694Z,30.37
2018-06-03T10:13:04.740Z,30.39
2018-06-03T10:14:04.783Z,30.42
2018-06-03T10:15:04.828Z,30.72
2018-06-03T10:16:04.882Z,30.80
2018-06-03T10:17:04.933Z,30.55
2018-06-03T10:18:04.962Z,30.51
2018-06-03T10:19:05.007Z,30.64
2018-06-03T10:20:05.049Z,31.04
2018-06-03T10:21:05.095Z,30.84
2018-06-03T10:22:05.141Z,30.49
2018-06-03T10:23:05.184Z,30.10
2018-06-03T10:24:05.227Z,29.94
2018-06-03T10:25:05.273Z,30.02
2018-06-03T10:26:05.318Z,30.19
2018-06-03T10:27:05.433Z,30.24
2018-06-03T10:28:05.406Z,30.60
2018-06-03T10:29:05.453Z,30.69
2018-06-03T10:30:05.497Z,30.45
2018-06-03T10:31:05.743Z,30.43
2018-06-03T10:32:05.587Z,29.89
2018-06-03T10:33:05.630Z,30.00
2018-06-03T10:34:05.678Z,29.97
2018-06-03T10:35:05.720Z,30.45
2018-06-03T10:36:05.764Z,31.14
2018-06-03T10:37:05.810Z,31.38
2018-06-03T10:38:05.855Z,31.26
2018-06-03T10:39:05.905Z,31.92
2018-06-03T10:40:05.949Z,32.23
2018-06-03T10:41:05.992Z,32.69
2018-06-03T10:42:06.043Z,32.72
2018-06-03T10:43:06.084Z,32.88
2018-06-03T10:44:06.130Z,32.93
2018-06-03T10:45:06.177Z,32.88
2018-06-03T10:46:06.224Z,33.35
2018-06-03T10:47:06.273Z,33.69
2018-06-03T10:48:06.322Z,33.73
2018-06-03T10:49:06.369Z,34.24
2018-06-03T10:50:06.417Z,34.78
2018-06-03T10:51:06.467Z,35.29
2018-06-03T10:52:06.514Z,34.99
2018-06-03T10:53:06.562Z,34.88
2018-06-03T10:54:06.612Z,34.91
2018-06-03T10:55:06.661Z,35.11
2018-06-03T10:56:06.710Z,35.21
2018-06-03T10:57:06.760Z,35.36
2018-06-03T10:58:06.810Z,34.78
2018-06-03T10:59:06.859Z,34.46
2018-06-03T11:00:06.908Z,35.14
2018-06-03T11:01:06.959Z,34.77
2018-06-03T11:02:07.010Z,35.07
2018-06-03T11:03:07.060Z,35.21
2018-06-03T11:04:07.108Z,35.29
2018-06-03T11:05:07.160Z,35.77
2018-06-03T11:06:07.215Z,35.77
2018-06-03T11:07:07.261Z,35.62
2018-06-03T11:08:07.310Z,35.28
2018-06-03T11:09:07.361Z,34.31
2018-06-03T11:10:07.412Z,34.80
2018-06-03T11:11:07.463Z,34.44
2018-06-03T11:12:07.514Z,34.50
2018-06-03T11:13:07.563Z,34.77
2018-06-03T11:14:07.616Z,35.31
2018-06-03T11:15:07.668Z,34.56
2018-06-03T11:16:07.717Z,34.15
2018-06-03T11:17:07.769Z,34.25
2018-06-03T11:18:07.847Z,33.71
2018-06-03T11:19:07.871Z,33.84
2018-06-03T11:20:07.920Z,33.73
2018-06-03T11:21:07.972Z,34.22
2018-06-03T11:22:08.022Z,34.31
2018-06-03T11:23:08.073Z,34.28
2018-06-03T11:24:08.122Z,34.08
2018-06-03T11:25:08.175Z,33.79
2018-06-03T11:26:08.225Z,34.09
2018-06-03T11:27:08.276Z,34.39
2018-06-03T11:28:08.330Z,34.62
2018-06-03T11:29:08.376Z,34.50
2018-06-03T11:30:08.428Z,34.88
2018-06-03T11:31:08.479Z,35.03
2018-06-03T11:32:08.532Z,35.02
2018-06-03T11:33:08.580Z,34.87
2018-06-03T11:34:08.629Z,35.25
2018-06-03T11:35:08.679Z,35.28
2018-06-03T11:36:08.730Z,34.75
2018-06-03T11:37:08.781Z,35.63
2018-06-03T11:38:08.830Z,35.53
2018-06-03T11:39:08.884Z,35.47
2018-06-03T11:40:08.935Z,34.64
2018-06-03T11:41:08.983Z,35.28
2018-06-03T11:42:09.032Z,35.75
2018-06-03T11:43:09.085Z,35.78
2018-06-03T11:44:09.136Z,35.99
2018-06-03T11:45:09.186Z,36.60
2018-06-03T11:46:09.237Z,36.75
2018-06-03T11:47:09.290Z,35.77
2018-06-03T11:48:09.340Z,35.33
2018-06-03T11:49:09.392Z,34.99
2018-06-03T11:50:09.446Z,35.23
2018-06-03T11:51:09.497Z,35.28
2018-06-03T11:52:09.549Z,35.38
2018-06-03T11:53:09.600Z,35.89
2018-06-03T11:54:09.652Z,35.90
2018-06-03T11:55:09.704Z,36.12
2018-06-03T11:56:09.772Z,35.96
2018-06-03T11:57:09.808Z,36.20
2018-06-03T11:58:09.859Z,35.96
2018-06-03T11:59:09.915Z,36.46
2018-06-03T12:00:09.967Z,36.84
2018-06-03T12:01:10.016Z,36.66
2018-06-03T12:03:10.444Z,37.02
2018-06-03T12:04:10.171Z,36.71
2018-06-03T12:05:10.249Z,36.46
2018-06-03T12:06:10.276Z,36.29
2018-06-03T12:07:10.329Z,36.50
2018-06-03T12:08:10.755Z,36.56
2018-06-03T12:09:10.456Z,36.98
2018-06-03T12:10:10.484Z,38.11
2018-06-03T12:11:10.539Z,38.57
2018-06-03T12:12:10.595Z,38.54
2018-06-03T12:13:10.643Z,38.50
2018-06-03T12:14:10.695Z,38.63
2018-06-03T12:15:10.749Z,38.99
2018-06-03T12:16:10.802Z,38.63
2018-06-03T12:17:10.856Z,38.44
2018-06-03T12:18:10.909Z,38.72
2018-06-03T12:19:10.964Z,38.15
2018-06-03T12:20:11.019Z,37.81
2018-06-03T12:21:11.074Z,38.16
2018-06-03T12:22:11.126Z,37.79
2018-06-03T12:23:11.181Z,38.07
2018-06-03T12:24:11.235Z,38.16
2018-06-03T12:25:11.289Z,38.19
2018-06-03T12:26:11.343Z,38.60
2018-06-03T12:27:11.399Z,38.09
2018-06-03T12:28:11.453Z,37.02
2018-06-03T12:29:11.509Z,36.98
2018-06-03T12:30:11.564Z,37.62
2018-06-03T12:31:11.617Z,37.84
2018-06-03T12:32:11.671Z,37.55
2018-06-03T12:33:11.730Z,37.69
2018-06-03T12:34:11.783Z,37.64
2018-06-03T12:35:11.838Z,38.16
2018-06-03T12:36:11.892Z,39.04
2018-06-03T12:37:11.948Z,39.14
2018-06-03T12:38:12.012Z,39.51
2018-06-03T12:39:12.058Z,39.13
2018-06-03T12:40:12.117Z,39.72
2018-06-03T12:41:12.167Z,39.55
2018-06-03T12:42:12.224Z,39.55
2018-06-03T12:43:12.279Z,37.96
2018-06-03T12:44:12.334Z,37.82
2018-06-03T12:45:12.390Z,38.04
2018-06-03T12:46:12.445Z,38.63
2018-06-03T12:47:12.501Z,38.60
2018-06-03T12:48:12.556Z,39.11
2018-06-03T12:49:12.612Z,38.19
2018-06-03T12:50:12.668Z,38.11
2018-06-03T12:51:12.722Z,38.07
2018-06-03T12:52:12.776Z,38.47
2018-06-03T12:53:12.832Z,39.47
2018-06-03T12:54:12.888Z,38.95
2018-06-03T12:55:12.942Z,38.35
2018-06-03T12:56:13.000Z,38.66
2018-06-03T12:57:13.054Z,39.33
2018-06-03T12:58:13.110Z,39.81
2018-06-03T12:59:13.166Z,40.32
2018-06-03T13:00:13.218Z,40.61
2018-06-03T13:01:13.276Z,40.41
2018-06-03T13:02:13.331Z,40.10
2018-06-03T13:03:13.436Z,38.90
2018-06-03T13:04:13.441Z,39.32
2018-06-03T13:05:13.498Z,39.64
2018-06-03T13:06:13.552Z,39.62
2018-06-03T13:07:13.609Z,40.12
2018-06-03T13:08:13.663Z,39.91